createdAt,value
2018-09-29T00:00:39.160Z,1018.02
2018-09-29T00:01:39.147Z,1018.09
2018-09-29T00:02:39.148Z,1018.13
2018-09-29T00:03:39.123Z,1018.08
2018-09-29T00:04:39.120Z,1018.19
2018-09-29T00:05:39.111Z,1018.21
2018-09-29T00:06:39.115Z,1018.22
2018-09-29T00:07:39.096Z,1018.22
2018-09-29T00:08:39.072Z,1018.22
2018-09-29T00:09:40.712Z,1018.19
2018-09-29T00:10:39.045Z,1018.18
2018-09-29T00:11:39.039Z,1018.17
2018-09-29T00:12:39.056Z,1018.22
2018-09-29T00:13:39.016Z,1018.19
2018-09-29T00:14:46.029Z,1018.18
2018-09-29T00:15:38.994Z,1018.26
2018-09-29T00:16:39.037Z,1018.29
2018-09-29T00:17:38.971Z,1018.29
2018-09-29T00:18:38.969Z,1018.25
2018-09-29T00:19:45.970Z,1018.24
2018-09-29T00:20:38.933Z,1018.26
2018-09-29T00:21:38.929Z,1018.23
2018-09-29T00:22:38.917Z,1018.25
2018-09-29T00:23:38.916Z,1018.25
2018-09-29T00:24:45.923Z,1018.25
2018-09-29T00:25:38.878Z,1018.28
2018-09-29T00:26:38.867Z,1018.22
2018-09-29T00:27:38.855Z,1018.19
2018-09-29T00:28:38.858Z,1018.21
2018-09-29T00:29:38.833Z,1018.23
2018-09-29T00:30:38.823Z,1018.26
2018-09-29T00:31:38.812Z,1018.24
2018-09-29T00:32:38.800Z,1018.20
2018-09-29T00:33:38.805Z,1018.25
2018-09-29T00:34:38.777Z,1018.27
2018-09-29T00:35:38.775Z,1018.22
2018-09-29T00:36:38.759Z,1018.22
2018-09-29T00:37:38.746Z,1018.18
2018-09-29T00:38:38.771Z,1018.22
2018-09-29T00:39:38.724Z,1018.18
2018-09-29T00:40:38.713Z,1018.19
2018-09-29T00:41:38.701Z,1018.20
2018-09-29T00:42:38.695Z,1018.21
2018-09-29T00:43:38.705Z,1018.24
2018-09-29T00:44:38.665Z,1018.21
2018-09-29T00:45:38.659Z,1018.22
2018-09-29T00:46:38.645Z,1018.22
2018-09-29T00:47:38.635Z,1018.26
2018-09-29T00:48:38.637Z,1018.21
2018-09-29T00:49:38.616Z,1018.21
2018-09-29T00:50:38.606Z,1018.17
2018-09-29T00:51:38.589Z,1018.21
2018-09-29T00:52:38.577Z,1018.21
2018-09-29T00:53:38.579Z,1018.22
2018-09-29T00:54:38.554Z,1018.23
2018-09-29T00:55:38.543Z,1018.30
2018-09-29T00:56:38.552Z,1018.29
2018-09-29T00:57:38.526Z,1018.29
2018-09-29T00:58:38.527Z,1018.25
2018-09-29T00:59:38.502Z,1018.30
2018-09-29T01:00:38.490Z,1018.26
2018-09-29T01:01:38.480Z,1018.29
2018-09-29T01:02:38.468Z,1018.27
2018-09-29T01:03:38.483Z,1018.29
2018-09-29T01:04:38.445Z,1018.25
2018-09-29T01:05:38.434Z,1018.23
2018-09-29T01:06:38.422Z,1018.19
2018-09-29T01:07:38.411Z,1018.19
2018-09-29T01:08:38.416Z,1018.24
2018-09-29T01:09:38.390Z,1018.19
2018-09-29T01:10:38.393Z,1018.20
2018-09-29T01:11:38.370Z,1018.20
2018-09-29T01:12:38.356Z,1018.14
2018-09-29T01:13:38.369Z,1018.18
2018-09-29T01:14:38.348Z,1018.15
2018-09-29T01:15:38.323Z,1018.17
2018-09-29T01:16:38.310Z,1018.17
2018-09-29T01:17:38.317Z,1018.21
2018-09-29T01:18:38.306Z,1018.16
2018-09-29T01:19:38.278Z,1018.15
2018-09-29T01:20:38.273Z,1018.16
2018-09-29T01:21:38.257Z,1018.16
2018-09-29T01:22:38.255Z,1018.14
2018-09-29T01:23:38.264Z,1018.13
2018-09-29T01:24:38.222Z,1018.12
2018-09-29T01:25:38.210Z,1018.12
2018-09-29T01:26:38.200Z,1018.15
2018-09-29T01:27:38.193Z,1018.15
2018-09-29T01:28:38.196Z,1018.18
2018-09-29T01:29:46.839Z,1018.15
2018-09-29T01:30:38.155Z,1018.15
2018-09-29T01:31:38.145Z,1018.20
2018-09-29T01:32:38.132Z,1018.21
2018-09-29T01:33:38.121Z,1018.28
2018-09-29T01:34:38.124Z,1018.30
2018-09-29T01:35:38.099Z,1018.33
2018-09-29T01:36:38.103Z,1018.32
2018-09-29T01:37:38.077Z,1018.30
2018-09-29T01:38:38.068Z,1018.31
2018-09-29T01:39:38.087Z,1018.34
2018-09-29T01:40:38.047Z,1018.32
2018-09-29T01:41:38.036Z,1018.29
2018-09-29T01:42:38.022Z,1018.24
2018-09-29T01:43:38.014Z,1018.24
2018-09-29T01:44:38.026Z,1018.23
2018-09-29T01:45:37.988Z,1018.22
2018-09-29T01:46:37.978Z,1018.19
2018-09-29T01:47:37.965Z,1018.16
2018-09-29T01:48:37.954Z,1018.17
2018-09-29T01:49:37.956Z,1018.19
2018-09-29T01:50:37.939Z,1018.12
2018-09-29T01:51:37.921Z,1018.17
2018-09-29T01:52:37.909Z,1018.20
2018-09-29T01:53:37.939Z,1018.22
2018-09-29T01:54:37.905Z,1018.22
2018-09-29T01:55:37.885Z,1018.27
2018-09-29T01:56:37.873Z,1018.27
2018-09-29T01:57:37.855Z,1018.30
2018-09-29T01:58:37.844Z,1018.23
2018-09-29T01:59:37.849Z,1018.22
2018-09-29T02:00:37.823Z,1018.22
2018-09-29T02:01:37.816Z,1018.20
2018-09-29T02:02:37.805Z,1018.18
2018-09-29T02:03:37.788Z,1018.27
2018-09-29T02:04:37.791Z,1018.22
2018-09-29T02:05:37.767Z,1018.24
2018-09-29T02:06:37.756Z,1018.22
2018-09-29T02:07:37.744Z,1018.22
2018-09-29T02:08:37.739Z,1018.21
2018-09-29T02:09:37.734Z,1018.24
2018-09-29T02:10:37.717Z,1018.24
2018-09-29T02:11:37.698Z,1018.27
2018-09-29T02:12:52.330Z,1018.30
2018-09-29T02:13:37.676Z,1018.31
2018-09-29T02:14:37.686Z,1018.29
2018-09-29T02:15:37.658Z,1018.28
2018-09-29T02:16:37.642Z,1018.28
2018-09-29T02:17:37.635Z,1018.26
2018-09-29T02:18:37.619Z,1018.28
2018-09-29T02:19:37.625Z,1018.25
2018-09-29T02:20:37.603Z,1018.28
2018-09-29T02:21:37.587Z,1018.29
2018-09-29T02:22:37.575Z,1018.30
2018-09-29T02:23:37.565Z,1018.28
2018-09-29T02:24:37.566Z,1018.30
2018-09-29T02:25:37.544Z,1018.34
2018-09-29T02:26:37.535Z,1018.34
2018-09-29T02:27:37.521Z,1018.33
2018-09-29T02:28:37.520Z,1018.34
2018-09-29T02:29:44.550Z,1018.37
2018-09-29T02:30:37.486Z,1018.36
2018-09-29T02:31:37.475Z,1018.30
2018-09-29T02:32:37.465Z,1018.32
2018-09-29T02:33:37.453Z,1018.25
2018-09-29T02:34:37.457Z,1018.25
2018-09-29T02:35:37.432Z,1018.22
2018-09-29T02:36:37.418Z,1018.22
2018-09-29T02:37:37.408Z,1018.18
2018-09-29T02:38:37.401Z,1018.21
2018-09-29T02:39:37.409Z,1018.15
2018-09-29T02:40:37.384Z,1018.19
2018-09-29T02:41:37.389Z,1018.23
2018-09-29T02:42:37.353Z,1018.17
2018-09-29T02:43:37.342Z,1018.17
2018-09-29T02:44:37.347Z,1018.16
2018-09-29T02:45:37.333Z,1018.17
2018-09-29T02:46:37.310Z,1018.13
2018-09-29T02:47:37.298Z,1018.17
2018-09-29T02:48:37.285Z,1018.17
2018-09-29T02:49:37.294Z,1018.21
2018-09-29T02:50:37.281Z,1018.20
2018-09-29T02:51:37.254Z,1018.18
2018-09-29T02:52:37.259Z,1018.17
2018-09-29T02:53:37.231Z,1018.21
2018-09-29T02:54:37.221Z,1018.22
2018-09-29T02:55:37.230Z,1018.12
2018-09-29T02:56:37.203Z,1018.18
2018-09-29T02:57:37.186Z,1018.15
2018-09-29T02:58:37.174Z,1018.13
2018-09-29T02:59:37.163Z,1018.06
2018-09-29T03:00:37.166Z,1018.12
2018-09-29T03:01:37.149Z,1018.06
2018-09-29T03:02:37.132Z,1018.08
2018-09-29T03:03:37.120Z,1018.03
2018-09-29T03:04:37.108Z,1017.99
2018-09-29T03:05:37.113Z,1018.03
2018-09-29T03:06:37.090Z,1018.07
2018-09-29T03:07:37.081Z,1018.04
2018-09-29T03:08:37.104Z,1018.09
2018-09-29T03:09:37.052Z,1018.04
2018-09-29T03:10:37.059Z,1018.02
2018-09-29T03:11:37.038Z,1018.03
2018-09-29T03:12:37.020Z,1018.05
2018-09-29T03:13:37.009Z,1018.04
2018-09-29T03:14:37.017Z,1018.02
2018-09-29T03:15:37.004Z,1018.08
2018-09-29T03:16:36.976Z,1018.04
2018-09-29T03:17:36.964Z,1018.05
2018-09-29T03:18:36.953Z,1018.04
2018-09-29T03:19:36.943Z,1018.06
2018-09-29T03:20:36.966Z,1018.15
2018-09-29T03:21:36.924Z,1018.09
2018-09-29T03:22:36.910Z,1018.11
2018-09-29T03:23:36.902Z,1018.08
2018-09-29T03:24:36.886Z,1018.09
2018-09-29T03:25:36.895Z,1018.07
2018-09-29T03:26:36.866Z,1018.09
2018-09-29T03:27:36.895Z,1018.07
2018-09-29T03:28:36.844Z,1018.03
2018-09-29T03:29:43.864Z,1018.08
2018-09-29T03:30:36.832Z,1018.03
2018-09-29T03:31:36.852Z,1018.08
2018-09-29T03:32:36.798Z,1018.06
2018-09-29T03:33:36.785Z,1018.01
2018-09-29T03:34:43.807Z,1018.01
2018-09-29T03:35:36.781Z,1018.04
2018-09-29T03:36:36.752Z,1017.99
2018-09-29T03:37:36.743Z,1018.09
2018-09-29T03:38:36.730Z,1018.00
2018-09-29T03:39:36.720Z,1017.98
2018-09-29T03:40:38.453Z,1018.03
2018-09-29T03:41:36.696Z,1018.06
2018-09-29T03:42:36.688Z,1018.02
2018-09-29T03:43:36.684Z,1018.07
2018-09-29T03:44:36.663Z,1018.07
2018-09-29T03:45:36.679Z,1018.04
2018-09-29T03:46:36.642Z,1017.98
2018-09-29T03:47:36.631Z,1018.04
2018-09-29T03:48:36.628Z,1018.00
2018-09-29T03:49:36.609Z,1017.99
2018-09-29T03:50:36.597Z,1017.97
2018-09-29T03:51:36.607Z,1017.92
2018-09-29T03:52:36.577Z,1017.94
2018-09-29T03:53:36.637Z,1017.88
2018-09-29T03:54:36.565Z,1017.93
2018-09-29T03:55:36.542Z,1017.91
2018-09-29T03:56:36.552Z,1017.95
2018-09-29T03:57:36.521Z,1017.98
2018-09-29T03:58:36.512Z,1017.92
2018-09-29T03:59:36.497Z,1017.91
2018-09-29T04:00:36.493Z,1017.94
2018-09-29T04:01:36.492Z,1017.94
2018-09-29T04:02:36.465Z,1017.92
2018-09-29T04:03:36.452Z,1017.98
2018-09-29T04:04:36.443Z,1017.95
2018-09-29T04:05:36.437Z,1017.94
2018-09-29T04:06:36.458Z,1017.97
2018-09-29T04:07:36.408Z,1017.94
2018-09-29T04:08:36.398Z,1017.94
2018-09-29T04:09:36.390Z,1017.94
2018-09-29T04:10:36.377Z,1017.97
2018-09-29T04:11:36.364Z,1017.99
2018-09-29T04:12:36.379Z,1017.99
2018-09-29T04:13:36.343Z,1017.99
2018-09-29T04:14:36.332Z,1017.99
2018-09-29T04:15:36.322Z,1017.98
2018-09-29T04:16:36.309Z,1017.96
2018-09-29T04:17:36.312Z,1018.06
2018-09-29T04:18:36.301Z,1018.09
2018-09-29T04:19:36.310Z,1018.06
2018-09-29T04:20:36.265Z,1018.09
2018-09-29T04:21:36.258Z,1018.09
2018-09-29T04:22:36.255Z,1018.06
2018-09-29T04:23:36.238Z,1018.04
2018-09-29T04:24:36.229Z,1018.05
2018-09-29T04:25:36.211Z,1018.08
2018-09-29T04:26:36.199Z,1018.06
2018-09-29T04:27:36.202Z,1018.01
2018-09-29T04:28:36.177Z,1018.07
2018-09-29T04:29:36.165Z,1018.04
2018-09-29T04:30:36.168Z,1018.06
2018-09-29T04:31:36.143Z,1018.09
2018-09-29T04:32:36.147Z,1018.09
2018-09-29T04:33:36.120Z,1018.09
2018-09-29T04:34:36.113Z,1018.06
2018-09-29T04:35:36.098Z,1018.06
2018-09-29T04:36:36.093Z,1018.06
2018-09-29T04:37:36.105Z,1018.10
2018-09-29T04:38:36.066Z,1018.11
2018-09-29T04:39:36.054Z,1018.14
2018-09-29T04:40:43.078Z,1018.12
2018-09-29T04:41:36.031Z,1018.12
2018-09-29T04:42:36.020Z,1018.10
2018-09-29T04:43:36.025Z,1018.09
2018-09-29T04:44:36.002Z,1018.16
2018-09-29T04:45:35.986Z,1018.17
2018-09-29T04:46:35.975Z,1018.18
2018-09-29T04:47:35.966Z,1018.19
2018-09-29T04:48:35.971Z,1018.18
2018-09-29T04:49:35.953Z,1018.18
2018-09-29T04:50:35.933Z,1018.20
2018-09-29T04:51:35.951Z,1018.22
2018-09-29T04:52:35.912Z,1018.23
2018-09-29T04:53:35.911Z,1018.19
2018-09-29T04:54:35.912Z,1018.21
2018-09-29T04:55:35.876Z,1018.21
2018-09-29T04:56:35.871Z,1018.28
2018-09-29T04:57:35.857Z,1018.28
2018-09-29T04:58:35.856Z,1018.24
2018-09-29T04:59:35.843Z,1018.22
2018-09-29T05:00:35.824Z,1018.24
2018-09-29T05:01:35.811Z,1018.22
2018-09-29T05:02:35.799Z,1018.24
2018-09-29T05:03:35.807Z,1018.25
2018-09-29T05:04:35.778Z,1018.25
2018-09-29T05:05:35.766Z,1018.26
2018-09-29T05:06:35.823Z,1018.30
2018-09-29T05:07:35.748Z,1018.28
2018-09-29T05:08:35.766Z,1018.27
2018-09-29T05:09:35.724Z,1018.23
2018-09-29T05:10:35.751Z,1018.25
2018-09-29T05:11:35.699Z,1018.23
2018-09-29T05:12:35.705Z,1018.25
2018-09-29T05:13:35.687Z,1018.24
2018-09-29T05:14:35.684Z,1018.24
2018-09-29T05:15:35.667Z,1018.22
2018-09-29T05:16:35.652Z,1018.20
2018-09-29T05:17:35.635Z,1018.16
2018-09-29T05:18:35.621Z,1018.10
2018-09-29T05:19:35.623Z,1018.06
2018-09-29T05:20:35.599Z,1018.09
2018-09-29T05:21:35.595Z,1018.08
2018-09-29T05:22:35.582Z,1018.06
2018-09-29T05:23:35.568Z,1018.07
2018-09-29T05:24:35.568Z,1018.12
2018-09-29T05:25:35.546Z,1018.10
2018-09-29T05:26:35.536Z,1018.11
2018-09-29T05:27:35.529Z,1018.14
2018-09-29T05:28:35.515Z,1018.19
2018-09-29T05:29:35.515Z,1018.15
2018-09-29T05:30:35.490Z,1018.14
2018-09-29T05:31:35.478Z,1018.18
2018-09-29T05:32:35.467Z,1018.16
2018-09-29T05:33:35.474Z,1018.16
2018-09-29T05:34:35.464Z,1018.22
2018-09-29T05:35:35.433Z,1018.16
2018-09-29T05:36:35.423Z,1018.19
2018-09-29T05:37:35.414Z,1018.18
2018-09-29T05:38:35.531Z,1018.13
2018-09-29T05:39:35.437Z,1018.15
2018-09-29T05:40:42.405Z,1018.13
2018-09-29T05:41:35.367Z,1018.12
2018-09-29T05:42:35.356Z,1018.14
2018-09-29T05:43:35.344Z,1018.14
2018-09-29T05:44:35.350Z,1018.18
2018-09-29T05:45:35.324Z,1018.16
2018-09-29T05:46:35.324Z,1018.16
2018-09-29T05:47:35.313Z,1018.20
2018-09-29T05:48:35.290Z,1018.24
2018-09-29T05:49:35.308Z,1018.22
2018-09-29T05:50:35.272Z,1018.27
2018-09-29T05:51:35.272Z,1018.31
2018-09-29T05:52:35.252Z,1018.29
2018-09-29T05:53:35.234Z,1018.34
2018-09-29T05:54:35.224Z,1018.33
2018-09-29T05:55:35.234Z,1018.37
2018-09-29T05:56:35.210Z,1018.40
2018-09-29T05:57:35.190Z,1018.34
2018-09-29T05:58:35.188Z,1018.37
2018-09-29T05:59:35.169Z,1018.38
2018-09-29T06:00:35.245Z,1018.40
2018-09-29T06:01:35.146Z,1018.43
2018-09-29T06:02:35.138Z,1018.42
2018-09-29T06:03:35.123Z,1018.42
2018-09-29T06:04:35.114Z,1018.40
2018-09-29T06:05:35.203Z,1018.38
2018-09-29T06:06:35.091Z,1018.37
2018-09-29T06:07:35.268Z,1018.38
2018-09-29T06:08:35.078Z,1018.41
2018-09-29T06:09:35.058Z,1018.41
2018-09-29T06:10:35.059Z,1018.40
2018-09-29T06:11:35.035Z,1018.37
2018-09-29T06:12:35.024Z,1018.42
2018-09-29T06:13:35.013Z,1018.45
2018-09-29T06:14:35.014Z,1018.47
2018-09-29T06:15:35.004Z,1018.46
2018-09-29T06:16:34.980Z,1018.42
2018-09-29T06:17:34.968Z,1018.37
2018-09-29T06:18:34.957Z,1018.36
2018-09-29T06:19:34.948Z,1018.33
2018-09-29T06:20:35.328Z,1018.39
2018-09-29T06:21:34.929Z,1018.41
2018-09-29T06:22:34.913Z,1018.42
2018-09-29T06:23:34.907Z,1018.42
2018-09-29T06:24:34.893Z,1018.43
2018-09-29T06:25:34.883Z,1018.43
2018-09-29T06:26:34.882Z,1018.44
2018-09-29T06:27:34.859Z,1018.45
2018-09-29T06:28:34.855Z,1018.42
2018-09-29T06:29:34.835Z,1018.45
2018-09-29T06:30:34.824Z,1018.43
2018-09-29T06:31:34.830Z,1018.49
2018-09-29T06:32:34.803Z,1018.47
2018-09-29T06:33:34.792Z,1018.48
2018-09-29T06:34:34.788Z,1018.51
2018-09-29T06:35:34.767Z,1018.40
2018-09-29T06:36:34.774Z,1018.42
2018-09-29T06:37:37.446Z,1018.41
2018-09-29T06:38:34.734Z,1018.39
2018-09-29T06:39:34.846Z,1018.42
2018-09-29T06:40:41.774Z,1018.40
2018-09-29T06:41:34.723Z,1018.32
2018-09-29T06:42:34.691Z,1018.36
2018-09-29T06:43:34.679Z,1018.35
2018-09-29T06:44:34.671Z,1018.36
2018-09-29T06:45:34.659Z,1018.45
2018-09-29T06:46:41.697Z,1018.43
2018-09-29T06:47:34.649Z,1018.46
2018-09-29T06:48:34.624Z,1018.45
2018-09-29T06:49:34.615Z,1018.48
2018-09-29T06:50:34.636Z,1018.54
2018-09-29T06:51:34.655Z,1018.46
2018-09-29T06:52:34.608Z,1018.53
2018-09-29T06:53:36.536Z,1018.47
2018-09-29T06:54:34.618Z,1018.51
2018-09-29T06:55:34.545Z,1018.53
2018-09-29T06:56:34.555Z,1018.51
2018-09-29T06:57:34.552Z,1018.55
2018-09-29T06:58:34.528Z,1018.47
2018-09-29T06:59:34.501Z,1018.53
2018-09-29T07:00:34.493Z,1018.57
2018-09-29T07:01:34.503Z,1018.50
2018-09-29T07:02:34.481Z,1018.49
2018-09-29T07:03:34.456Z,1018.50
2018-09-29T07:04:34.469Z,1018.53
2018-09-29T07:05:34.434Z,1018.50
2018-09-29T07:06:34.424Z,1018.54
2018-09-29T07:07:34.430Z,1018.52
2018-09-29T07:08:34.400Z,1018.51
2018-09-29T07:09:34.389Z,1018.47
2018-09-29T07:10:34.390Z,1018.48
2018-09-29T07:11:34.368Z,1018.53
2018-09-29T07:12:34.369Z,1018.51
2018-09-29T07:13:34.345Z,1018.54
2018-09-29T07:14:34.334Z,1018.59
2018-09-29T07:15:34.328Z,1018.52
2018-09-29T07:16:34.317Z,1018.54
2018-09-29T07:17:34.339Z,1018.56
2018-09-29T07:18:34.288Z,1018.55
2018-09-29T07:19:34.283Z,1018.56
2018-09-29T07:20:34.267Z,1018.51
2018-09-29T07:21:34.330Z,1018.54
2018-09-29T07:22:34.271Z,1018.54
2018-09-29T07:23:34.236Z,1018.57
2018-09-29T07:24:34.263Z,1018.58
2018-09-29T07:25:34.268Z,1018.63
2018-09-29T07:26:34.233Z,1018.60
2018-09-29T07:27:34.260Z,1018.56
2018-09-29T07:28:34.242Z,1018.53
2018-09-29T07:29:34.199Z,1018.57
2018-09-29T07:30:34.196Z,1018.54
2018-09-29T07:31:34.185Z,1018.51
2018-09-29T07:32:34.200Z,1018.61
2018-09-29T07:33:34.139Z,1018.56
2018-09-29T07:34:34.147Z,1018.52
2018-09-29T07:35:34.100Z,1018.51
2018-09-29T07:36:34.098Z,1018.53
2018-09-29T07:37:34.083Z,1018.51
2018-09-29T07:38:34.085Z,1018.55
2018-09-29T07:39:34.057Z,1018.57
2018-09-29T07:40:34.051Z,1018.58
2018-09-29T07:41:34.033Z,1018.53
2018-09-29T07:42:34.043Z,1018.55
2018-09-29T07:43:34.024Z,1018.56
2018-09-29T07:44:34.017Z,1018.57
2018-09-29T07:45:33.987Z,1018.57
2018-09-29T07:46:41.540Z,1018.55
2018-09-29T07:47:33.966Z,1018.54
2018-09-29T07:48:33.975Z,1018.54
2018-09-29T07:49:48.548Z,1018.62
2018-09-29T07:59:08.037Z,1018.59
2018-09-29T08:03:23.646Z,1018.54
2018-09-29T08:05:25.754Z,1018.55
2018-09-29T08:10:30.198Z,1018.62
2018-09-29T08:14:23.302Z,1018.62
2018-09-29T13:43:12.298Z,1014.66
2018-09-29T13:44:12.257Z,1014.64
2018-09-29T13:45:12.208Z,1014.68
2018-09-29T13:46:12.201Z,1014.65
2018-09-29T13:47:12.185Z,1014.64
2018-09-29T13:48:12.205Z,1014.66
2018-09-29T13:49:12.165Z,1014.67
2018-09-29T13:50:12.156Z,1014.61
2018-09-29T13:51:12.146Z,1014.59
2018-09-29T13:52:12.133Z,1014.61
2018-09-29T13:53:12.168Z,1014.57
2018-09-29T13:54:12.114Z,1014.54
2018-09-29T13:55:12.104Z,1014.56
2018-09-29T13:56:12.097Z,1014.55
2018-09-29T13:57:12.082Z,1014.53
2018-09-29T13:58:12.087Z,1014.50
2018-09-29T13:59:12.061Z,1014.47
2018-09-29T14:00:12.053Z,1014.45
2018-09-29T14:01:12.040Z,1014.45
2018-09-29T14:02:12.048Z,1014.46
2018-09-29T14:03:12.045Z,1014.42
2018-09-29T14:04:12.010Z,1014.45
2018-09-29T14:05:11.997Z,1014.46
2018-09-29T14:06:11.984Z,1014.40
2018-09-29T14:07:11.981Z,1014.33
2018-09-29T14:08:11.995Z,1014.36
2018-09-29T14:09:11.951Z,1014.57
2018-09-29T14:10:11.945Z,1014.43
2018-09-29T14:11:11.930Z,1014.36
2018-09-29T14:12:11.923Z,1014.32
2018-09-29T14:13:11.909Z,1014.30
2018-09-29T14:14:11.914Z,1014.32
2018-09-29T14:15:11.888Z,1014.11
2018-09-29T14:16:11.879Z,1014.23
2018-09-29T14:17:11.873Z,1014.25
2018-09-29T14:31:18.915Z,1013.85
2018-09-29T14:32:18.898Z,1013.85
2018-09-29T14:33:18.884Z,1013.84
2018-09-29T14:34:18.888Z,1013.84
2018-09-29T14:35:18.859Z,1013.85
2018-09-29T14:36:18.864Z,1013.86
2018-09-29T14:37:18.890Z,1013.82
2018-09-29T14:38:18.924Z,1013.77
2018-09-29T14:39:18.924Z,1013.75
2018-09-29T14:40:18.822Z,1013.77
2018-09-29T14:41:18.841Z,1013.73
2018-09-29T14:42:18.943Z,1013.77
2018-09-29T14:43:18.828Z,1013.76
2018-09-29T14:44:18.791Z,1013.73
2018-09-29T14:45:18.750Z,1013.70
2018-09-29T14:46:18.740Z,1013.74
2018-09-29T14:47:18.728Z,1013.72
2018-09-29T14:48:18.728Z,1013.72
2018-09-29T14:49:18.703Z,1013.76
2018-09-29T14:50:18.709Z,1013.69
2018-09-29T14:51:18.681Z,1013.70
2018-09-29T14:52:18.674Z,1013.66
2018-09-29T14:53:18.661Z,1013.66
2018-09-29T14:54:18.745Z,1013.64
2018-09-29T14:55:18.654Z,1013.62
2018-09-29T14:56:18.623Z,1013.63
2018-09-29T14:57:18.624Z,1013.59
2018-09-29T14:58:18.603Z,1013.58
2018-09-29T14:59:18.592Z,1013.55
2018-09-29T15:00:18.595Z,1013.56
2018-09-29T15:01:18.569Z,1013.53
2018-09-29T15:02:18.558Z,1013.50
2018-09-29T15:03:18.546Z,1013.52
2018-09-29T15:04:18.593Z,1013.43
2018-09-29T15:05:18.547Z,1013.44
2018-09-29T15:06:18.510Z,1013.47
2018-09-29T15:07:18.500Z,1013.42
2018-09-29T15:08:18.493Z,1013.44
2018-09-29T15:09:18.478Z,1013.40
2018-09-29T15:10:18.646Z,1013.35
2018-09-29T15:11:18.477Z,1013.37
2018-09-29T15:12:18.446Z,1013.34
2018-09-29T15:13:18.430Z,1013.34
2018-09-29T15:14:18.421Z,1013.33
2018-09-29T15:15:18.407Z,1013.33
2018-09-29T15:16:18.412Z,1013.25
2018-09-29T15:17:18.388Z,1013.24
2018-09-29T15:18:18.376Z,1013.26
2018-09-29T15:19:18.379Z,1013.26
2018-09-29T15:20:18.392Z,1013.25
2018-09-29T15:21:18.363Z,1013.25
2018-09-29T15:22:18.330Z,1013.23
2018-09-29T15:23:18.316Z,1013.23
2018-09-29T15:24:18.312Z,1013.19
2018-09-29T15:25:18.294Z,1013.17
2018-09-29T15:26:18.296Z,1013.14
2018-09-29T15:27:18.273Z,1013.12
2018-09-29T15:28:18.263Z,1013.08
2018-09-29T15:29:18.254Z,1013.05
2018-09-29T15:30:18.237Z,1013.00
2018-09-29T15:31:18.243Z,1013.02
2018-09-29T15:32:18.222Z,1013.02
2018-09-29T15:33:18.204Z,1012.97
2018-09-29T15:34:18.193Z,1013.00
2018-09-29T15:35:18.183Z,1013.02
2018-09-29T15:36:18.197Z,1012.96
2018-09-29T15:37:18.165Z,1012.95
2018-09-29T15:38:18.153Z,1012.94
2018-09-29T15:39:18.137Z,1012.89
2018-09-29T15:40:18.127Z,1012.90
2018-09-29T15:41:18.115Z,1012.90
2018-09-29T15:42:18.149Z,1012.90
2018-09-29T15:43:18.094Z,1012.86
2018-09-29T15:44:18.082Z,1012.84
2018-09-29T15:45:18.071Z,1012.85
2018-09-29T15:46:18.059Z,1012.87
2018-09-29T15:47:18.061Z,1012.84
2018-09-29T15:48:18.037Z,1012.80
2018-09-29T15:49:18.029Z,1012.77
2018-09-29T15:50:18.015Z,1012.79
2018-09-29T15:51:18.002Z,1012.78
2018-09-29T15:52:18.008Z,1012.80
2018-09-29T15:53:17.980Z,1012.71
2018-09-29T15:54:17.968Z,1012.76
2018-09-29T15:55:17.970Z,1012.71
2018-09-29T15:56:17.949Z,1012.72
2018-09-29T15:57:17.949Z,1012.71
2018-09-29T15:58:17.924Z,1012.67
2018-09-29T15:59:17.914Z,1012.69
2018-09-29T16:00:17.901Z,1012.70
2018-09-29T16:01:17.891Z,1012.70
2018-09-29T16:02:18.324Z,1012.68
2018-09-29T16:03:17.868Z,1012.67
2018-09-29T16:04:17.858Z,1012.65
2018-09-29T16:05:17.849Z,1012.67
2018-09-29T16:06:17.835Z,1012.63
2018-09-29T16:07:17.827Z,1012.63
2018-09-29T16:08:17.825Z,1012.64
2018-09-29T16:09:17.803Z,1012.63
2018-09-29T16:10:17.788Z,1012.61
2018-09-29T16:11:17.782Z,1012.62
2018-09-29T16:12:17.767Z,1012.57
2018-09-29T16:13:17.768Z,1012.55
2018-09-29T16:14:17.746Z,1012.59
2018-09-29T16:15:17.734Z,1012.54
2018-09-29T16:16:17.722Z,1012.54
2018-09-29T16:17:17.717Z,1012.53
2018-09-29T16:18:17.716Z,1012.51
2018-09-29T16:19:17.690Z,1012.48
2018-09-29T16:20:17.675Z,1012.48
2018-09-29T16:21:17.663Z,1012.48
2018-09-29T16:22:17.658Z,1012.46
2018-09-29T16:23:17.661Z,1012.47
2018-09-29T16:24:17.631Z,1012.48
2018-09-29T16:25:17.622Z,1012.50
2018-09-29T16:26:17.615Z,1012.48
2018-09-29T16:27:17.600Z,1012.52
2018-09-29T16:28:17.598Z,1012.52
2018-09-29T16:29:17.572Z,1012.48
2018-09-29T16:30:17.561Z,1012.50
2018-09-29T16:31:17.553Z,1012.47
2018-09-29T16:32:17.570Z,1012.42
2018-09-29T16:33:17.592Z,1012.39
2018-09-29T16:34:17.520Z,1012.39
2018-09-29T16:35:17.518Z,1012.42
2018-09-29T16:36:17.520Z,1012.39
2018-09-29T16:37:17.480Z,1012.38
2018-09-29T16:38:17.533Z,1012.37
2018-09-29T16:39:17.477Z,1012.42
2018-09-29T16:40:17.449Z,1012.36
2018-09-29T16:41:17.447Z,1012.36
2018-09-29T16:42:17.426Z,1012.37
2018-09-29T16:43:17.437Z,1012.41
2018-09-29T16:44:17.418Z,1012.36
2018-09-29T16:45:17.392Z,1012.36
2018-09-29T16:46:17.380Z,1012.42
2018-09-29T16:47:17.370Z,1012.46
2018-09-29T16:48:17.357Z,1012.49
2018-09-29T16:49:17.362Z,1012.51
2018-09-29T16:50:17.335Z,1012.49
2018-09-29T16:51:17.323Z,1012.46
2018-09-29T16:52:17.312Z,1012.48
2018-09-29T16:53:17.308Z,1012.44
2018-09-29T16:54:17.307Z,1012.44
2018-09-29T16:55:17.285Z,1012.44
2018-09-29T16:56:17.266Z,1012.47
2018-09-29T16:57:17.257Z,1012.40
2018-09-29T16:58:17.245Z,1012.46
2018-09-29T16:59:17.252Z,1012.47
2018-09-29T17:00:17.236Z,1012.47
2018-09-29T17:01:17.211Z,1012.48
2018-09-29T17:02:17.200Z,1012.48
2018-09-29T17:03:17.191Z,1012.47
2018-09-29T17:04:17.280Z,1012.46
2018-09-29T17:05:17.166Z,1012.51
2018-09-29T17:06:17.155Z,1012.46
2018-09-29T17:07:17.143Z,1012.47
2018-09-29T17:08:17.132Z,1012.48
2018-09-29T17:09:17.146Z,1012.47
2018-09-29T17:10:17.111Z,1012.49
2018-09-29T17:11:17.100Z,1012.52
2018-09-29T17:12:17.087Z,1012.52
2018-09-29T17:13:17.081Z,1012.53
2018-09-29T17:14:17.063Z,1012.51
2018-09-29T17:15:17.071Z,1012.50
2018-09-29T17:16:17.047Z,1012.53
2018-09-29T17:17:17.029Z,1012.52
2018-09-29T17:18:17.015Z,1012.51
2018-09-29T17:19:17.010Z,1012.49
2018-09-29T17:20:17.016Z,1012.50
2018-09-29T17:21:16.986Z,1012.47
2018-09-29T17:22:16.975Z,1012.51
2018-09-29T17:23:16.962Z,1012.52
2018-09-29T17:24:16.949Z,1012.50
2018-09-29T17:25:17.000Z,1012.50
2018-09-29T17:26:16.930Z,1012.51
2018-09-29T17:27:16.923Z,1012.47
2018-09-29T17:28:16.920Z,1012.43
2018-09-29T17:29:16.896Z,1012.50
2018-09-29T17:30:16.883Z,1012.49
2018-09-29T17:31:16.886Z,1012.46
2018-09-29T17:32:16.864Z,1012.44
2018-09-29T17:33:16.852Z,1012.43
2018-09-29T17:34:16.841Z,1012.42
2018-09-29T17:35:16.825Z,1012.44
2018-09-29T17:36:16.827Z,1012.48
2018-09-29T17:37:16.806Z,1012.51
2018-09-29T17:38:16.792Z,1012.44
2018-09-29T17:39:16.779Z,1012.45
2018-09-29T17:40:16.768Z,1012.47
2018-09-29T17:41:16.774Z,1012.49
2018-09-29T17:42:16.749Z,1012.49
2018-09-29T17:43:16.733Z,1012.46
2018-09-29T17:44:16.723Z,1012.45
2018-09-29T17:45:16.713Z,1012.46
2018-09-29T17:46:16.720Z,1012.44
2018-09-29T17:47:16.687Z,1012.44
2018-09-29T17:48:16.677Z,1012.46
2018-09-29T17:49:16.673Z,1012.42
2018-09-29T17:50:16.658Z,1012.41
2018-09-29T17:51:16.661Z,1012.42
2018-09-29T17:52:16.638Z,1012.38
2018-09-29T17:53:16.621Z,1012.37
2018-09-29T17:54:16.613Z,1012.34
2018-09-29T17:55:16.598Z,1012.36
2018-09-29T17:56:16.606Z,1012.34
2018-09-29T17:57:16.592Z,1012.32
2018-09-29T17:58:16.566Z,1012.33
2018-09-29T17:59:16.555Z,1012.27
2018-09-29T18:00:16.542Z,1012.23
2018-09-29T18:01:16.560Z,1012.21
2018-09-29T18:02:16.538Z,1012.21
2018-09-29T18:03:16.512Z,1012.18
2018-09-29T18:04:16.547Z,1012.19
2018-09-29T18:05:16.484Z,1012.21
2018-09-29T18:06:16.477Z,1012.16